Time;durP1;ratioP1;P1;durP2;ratioP2;P2;SDS_P1;SDS_P2;PMS_P1;PMS_P2;Temp;Humidity;BMP_temperature;BMP_pressure;BME280_temperature;BME280_humidity;BME280_pressure;Samples;Min_cycle;Max_cycle;Signal;HPM_P1;HPM_P2
2022/09/20 00:00:22;;;;;;;;;;;12.00;99.90;;;;;;5110244;28;19919;-74
2022/09/20 00:02:48;;;;;;;;;;;12.00;99.90;;;;;;5115305;28;19919;-74
2022/09/20 00:05:13;;;;;;;;;;;12.00;99.90;;;;;;5117363;28;19908;-74
2022/09/20 00:07:39;;;;;;;;;;;12.00;99.90;;;;;;5116796;28;20214;-74
2022/09/20 00:10:04;;;;;;;;;;;12.00;99.90;;;;;;5109908;28;19912;-74
2022/09/20 00:12:30;;;;;;;;;;;11.90;99.90;;;;;;5110057;27;19916;-74
2022/09/20 00:14:56;;;;;;;;;;;12.00;99.90;;;;;;5114984;28;19911;-74
2022/09/20 00:17:21;;;;;;;;;;;11.90;99.90;;;;;;5111108;27;19916;-74
2022/09/20 00:19:47;;;;;;;;;;;11.90;99.90;;;;;;5109528;28;19912;-74
2022/09/20 00:22:12;;;;;;;;;;;11.90;99.90;;;;;;5114166;27;19916;-74
2022/09/20 00:24:38;;;;;;;;;;;11.80;99.90;;;;;;5105906;27;19919;-74
2022/09/20 00:27:03;;;;;;;;;;;11.80;99.90;;;;;;5101955;28;20213;-74
2022/09/20 00:29:29;;;;;;;;;;;11.80;99.90;;;;;;5116755;27;19918;-74
2022/09/20 00:31:54;;;;;;;;;;;11.70;99.90;;;;;;5114355;28;19934;-74
2022/09/20 00:37:04;;;;;;;;;;;11.60;99.90;;;;;;5102410;27;20364;-74
2022/09/20 00:39:30;;;;;;;;;;;11.60;99.90;;;;;;5109986;28;19916;-74
2022/09/20 00:41:55;;;;;;;;;;;11.60;99.90;;;;;;5115369;28;20291;-74
2022/09/20 00:44:39;;;;;;;;;;;11.60;99.90;;;;;;5102200;27;20014;-74
2022/09/20 00:47:08;;;;;;;;;;;11.60;99.90;;;;;;5116938;28;19950;-74
2022/09/20 00:49:35;;;;;;;;;;;11.60;99.90;;;;;;5100329;28;19920;-74
2022/09/20 00:52:01;;;;;;;;;;;11.60;99.90;;;;;;5104840;27;19916;-73
2022/09/20 00:54:28;;;;;;;;;;;11.60;99.90;;;;;;5108998;28;19916;-74
2022/09/20 00:56:54;;;;;;;;;;;11.60;99.90;;;;;;5107418;28;20184;-74
2022/09/20 00:59:27;;;;;;;;;;;11.60;99.90;;;;;;5114540;28;19961;-74
2022/09/20 01:01:55;;;;;;;;;;;11.60;99.90;;;;;;5115572;28;19915;-74
2022/09/20 01:04:23;;;;;;;;;;;11.60;99.90;;;;;;5101111;28;19916;-74
2022/09/20 01:06:49;;;;;;;;;;;11.60;99.90;;;;;;5102524;27;19913;-75
2022/09/20 01:09:14;;;;;;;;;;;11.60;99.90;;;;;;5101252;27;19951;-74
2022/09/20 01:11:40;;;;;;;;;;;11.60;99.90;;;;;;5109869;28;19962;-74
2022/09/20 01:14:06;;;;;;;;;;;11.60;99.90;;;;;;5116700;28;19915;-74
2022/09/20 01:16:32;;;;;;;;;;;11.60;99.90;;;;;;5113573;27;20328;-74
2022/09/20 01:19:00;;;;;;;;;;;11.50;99.90;;;;;;5099950;28;19912;-75
2022/09/20 01:21:26;;;;;;;;;;;11.50;99.90;;;;;;5108736;27;19922;-74
2022/09/20 01:23:54;;;;;;;;;;;11.50;99.90;;;;;;5114308;28;20349;-74
2022/09/20 01:26:32;;;;;;;;;;;11.50;99.90;;;;;;5114254;28;19962;-74
2022/09/20 01:29:08;;;;;;;;;;;11.50;99.90;;;;;;5114760;28;19916;-74
2022/09/20 01:31:35;;;;;;;;;;;11.40;99.90;;;;;;5116360;27;19908;-74
2022/09/20 01:34:02;;;;;;;;;;;11.50;99.90;;;;;;5112093;27;20310;-74
2022/09/20 01:36:28;;;;;;;;;;;11.40;99.90;;;;;;5111482;28;20302;-74
2022/09/20 01:39:06;;;;;;;;;;;11.40;99.90;;;;;;5107170;28;19912;-74
2022/09/20 01:41:34;;;;;;;;;;;11.40;99.90;;;;;;5115320;28;19920;-74
2022/09/20 01:44:11;;;;;;;;;;;11.40;99.90;;;;;;5114227;27;19915;-74
2022/09/20 01:46:38;;;;;;;;;;;11.50;99.90;;;;;;5114737;28;19916;-74
2022/09/20 01:49:06;;;;;;;;;;;11.50;99.90;;;;;;5115200;28;19964;-74
2022/09/20 01:51:55;;;;;;;;;;;11.50;99.90;;;;;;5115876;28;19916;-74
2022/09/20 01:54:20;;;;;;;;;;;11.50;99.90;;;;;;5076988;28;19912;-74
2022/09/20 01:57:04;;;;;;;;;;;11.50;99.90;;;;;;5113472;28;20537;-74
2022/09/20 01:59:48;;;;;;;;;;;11.50;99.90;;;;;;5111982;27;19919;-74
2022/09/20 02:02:13;;;;;;;;;;;11.40;99.90;;;;;;5107396;27;19934;-74
2022/09/20 02:04:45;;;;;;;;;;;11.40;99.90;;;;;;5108539;28;19929;-74
2022/09/20 02:07:20;;;;;;;;;;;11.30;99.90;;;;;;5100159;28;19972;-74
2022/09/20 02:10:04;;;;;;;;;;;11.30;99.90;;;;;;5105043;27;20306;-74
2022/09/20 02:12:36;;;;;;;;;;;11.30;99.90;;;;;;5113454;28;20334;-74
2022/09/20 02:15:08;;;;;;;;;;;11.20;99.90;;;;;;5111403;28;19931;-74
2022/09/20 02:17:47;;;;;;;;;;;11.20;99.90;;;;;;5094667;28;19919;-74
2022/09/20 02:20:30;;;;;;;;;;;11.20;99.90;;;;;;5112586;28;19926;-74
2022/09/20 02:23:04;;;;;;;;;;;11.10;99.90;;;;;;5113109;28;19922;-74
2022/09/20 02:25:48;;;;;;;;;;;11.10;99.90;;;;;;5101191;28;19912;-74
2022/09/20 02:28:17;;;;;;;;;;;11.00;99.90;;;;;;5106711;28;19916;-74
2022/09/20 02:30:45;;;;;;;;;;;11.00;99.90;;;;;;5107794;28;20983;-74
2022/09/20 02:33:23;;;;;;;;;;;10.90;99.90;;;;;;5110344;28;20363;-74
2022/09/20 02:35:48;;;;;;;;;;;10.90;99.90;;;;;;5102641;27;20362;-74
2022/09/20 02:38:32;;;;;;;;;;;10.90;99.90;;;;;;5113774;28;19994;-75
2022/09/20 02:41:04;;;;;;;;;;;10.80;99.90;;;;;;5108322;28;19912;-74
2022/09/20 02:43:34;;;;;;;;;;;10.80;99.90;;;;;;5110519;28;19916;-74
2022/09/20 02:46:12;;;;;;;;;;;10.80;99.90;;;;;;5106791;28;19919;-74
2022/09/20 02:48:44;;;;;;;;;;;10.80;99.90;;;;;;5101741;28;19920;-74
2022/09/20 02:51:19;;;;;;;;;;;10.80;99.90;;;;;;5094996;28;19915;-74
2022/09/20 02:53:47;;;;;;;;;;;10.80;99.90;;;;;;5107677;28;19956;-74
2022/09/20 02:56:16;;;;;;;;;;;10.80;99.90;;;;;;5108562;28;20286;-74
2022/09/20 02:58:51;;;;;;;;;;;10.80;99.90;;;;;;5113291;28;19916;-74
2022/09/20 03:01:19;;;;;;;;;;;10.90;99.90;;;;;;5104383;27;19916;-74
2022/09/20 03:03:56;;;;;;;;;;;10.90;99.90;;;;;;5097212;28;20014;-75
2022/09/20 03:06:27;;;;;;;;;;;10.80;99.90;;;;;;5108409;28;19969;-74
2022/09/20 03:09:17;;;;;;;;;;;10.80;99.90;;;;;;5109826;28;20409;-75
2022/09/20 03:11:50;;;;;;;;;;;10.80;99.90;;;;;;5101076;28;19916;-75
2022/09/20 03:14:25;;;;;;;;;;;10.80;99.90;;;;;;5103663;28;19912;-74
2022/09/20 03:17:09;;;;;;;;;;;10.70;99.90;;;;;;5104124;28;19915;-74
2022/09/20 03:19:47;;;;;;;;;;;10.70;99.90;;;;;;5113812;28;19908;-74
2022/09/20 03:22:16;;;;;;;;;;;10.70;99.90;;;;;;5108215;28;20002;-74
2022/09/20 03:24:58;;;;;;;;;;;10.70;99.90;;;;;;5104877;28;20278;-74
2022/09/20 03:27:31;;;;;;;;;;;10.60;99.90;;;;;;5093205;28;20346;-74
2022/09/20 03:30:03;;;;;;;;;;;10.60;99.90;;;;;;5099799;28;19916;-74
2022/09/20 03:32:37;;;;;;;;;;;10.60;99.90;;;;;;5112739;28;19981;-74
2022/09/20 03:35:06;;;;;;;;;;;10.60;99.90;;;;;;5099768;28;20347;-74
2022/09/20 03:37:37;;;;;;;;;;;10.60;99.90;;;;;;5114457;28;19951;-74
2022/09/20 03:40:14;;;;;;;;;;;10.60;99.90;;;;;;5113772;28;20005;-74
2022/09/20 03:42:45;;;;;;;;;;;10.60;99.90;;;;;;5113941;28;20010;-74
2022/09/20 03:45:22;;;;;;;;;;;10.60;99.90;;;;;;5099312;28;20280;-74
2022/09/20 03:48:07;;;;;;;;;;;10.70;99.90;;;;;;5098673;28;19912;-75
2022/09/20 03:50:41;;;;;;;;;;;10.60;99.90;;;;;;5124801;27;19923;-74
2022/09/20 03:53:33;;;;;;;;;;;10.60;99.90;;;;;;5107656;28;19923;-74
2022/09/20 03:56:17;;;;;;;;;;;10.60;99.90;;;;;;5102342;28;19920;-75
2022/09/20 03:58:55;;;;;;;;;;;10.60;99.90;;;;;;5093407;28;19912;-74
2022/09/20 04:01:31;;;;;;;;;;;10.60;99.90;;;;;;5110810;28;19908;-74
2022/09/20 04:03:56;;;;;;;;;;;10.60;99.90;;;;;;5093053;28;19946;-75
2022/09/20 04:06:34;;;;;;;;;;;10.50;99.90;;;;;;5103505;28;19912;-74
2022/09/20 04:09:06;;;;;;;;;;;10.60;99.90;;;;;;5107500;28;19912;-75
2022/09/20 04:11:39;;;;;;;;;;;10.60;99.90;;;;;;5093475;28;19955;-75
2022/09/20 04:14:22;;;;;;;;;;;10.70;99.90;;;;;;5105389;28;20356;-74
2022/09/20 04:17:04;;;;;;;;;;;10.60;99.90;;;;;;5097857;28;20360;-75
2022/09/20 04:19:36;;;;;;;;;;;10.60;99.90;;;;;;5094137;28;19912;-75
2022/09/20 04:22:02;;;;;;;;;;;10.50;99.90;;;;;;5092199;28;19916;-75
2022/09/20 04:24:27;;;;;;;;;;;10.50;99.90;;;;;;5101784;28;20208;-75
2022/09/20 04:27:02;;;;;;;;;;;10.50;99.90;;;;;;5102637;28;19912;-75
2022/09/20 04:29:34;;;;;;;;;;;10.50;99.90;;;;;;5102553;28;19908;-75
2022/09/20 04:32:18;;;;;;;;;;;10.40;99.90;;;;;;5101947;28;19999;-75
2022/09/20 04:37:51;;;;;;;;;;;10.30;99.90;;;;;;5082031;27;19995;-74
2022/09/20 04:40:31;;;;;;;;;;;10.20;99.90;;;;;;5104021;28;19977;-74
2022/09/20 04:42:57;;;;;;;;;;;10.20;99.90;;;;;;5106212;27;19926;-74
2022/09/20 04:45:29;;;;;;;;;;;10.20;99.90;;;;;;5116477;28;20303;-74
2022/09/20 04:48:13;;;;;;;;;;;10.10;99.90;;;;;;5117066;28;19908;-74
2022/09/20 04:50:49;;;;;;;;;;;10.10;99.90;;;;;;5104978;28;19912;-74
2022/09/20 04:53:33;;;;;;;;;;;10.10;99.90;;;;;;5113583;27;20094;-74
2022/09/20 04:55:59;;;;;;;;;;;10.00;99.90;;;;;;5116070;28;20330;-74
2022/09/20 04:58:47;;;;;;;;;;;9.90;99.90;;;;;;5113011;28;19958;-74
2022/09/20 05:01:15;;;;;;;;;;;9.90;99.90;;;;;;5106713;27;19980;-74
2022/09/20 05:03:59;;;;;;;;;;;9.90;99.90;;;;;;5109548;28;19912;-74
2022/09/20 05:06:34;;;;;;;;;;;9.90;99.90;;;;;;5116076;28;19950;-74
2022/09/20 05:08:59;;;;;;;;;;;9.80;99.90;;;;;;5116143;28;19908;-74
2022/09/20 05:11:45;;;;;;;;;;;9.90;99.90;;;;;;5110308;28;20009;-74
2022/09/20 05:14:16;;;;;;;;;;;9.90;99.90;;;;;;5115153;28;20291;-74
2022/09/20 05:16:48;;;;;;;;;;;9.80;99.90;;;;;;5107791;27;20535;-74
2022/09/20 05:19:20;;;;;;;;;;;9.80;99.90;;;;;;5113399;27;20326;-74
2022/09/20 05:22:09;;;;;;;;;;;9.70;99.90;;;;;;5109734;27;19959;-74
2022/09/20 05:24:35;;;;;;;;;;;9.80;99.90;;;;;;5104022;27;19965;-73
2022/09/20 05:27:21;;;;;;;;;;;9.80;99.90;;;;;;5105421;27;19919;-74
2022/09/20 05:29:56;;;;;;;;;;;9.70;99.90;;;;;;5107132;28;19927;-74
2022/09/20 05:32:21;;;;;;;;;;;9.70;99.90;;;;;;5109637;28;19973;-74
2022/09/20 05:34:59;;;;;;;;;;;9.70;99.90;;;;;;5106152;28;20303;-74
2022/09/20 05:37:27;;;;;;;;;;;9.70;99.90;;;;;;5108892;28;20015;-74
2022/09/20 05:40:11;;;;;;;;;;;9.80;99.90;;;;;;5112676;28;19937;-74
2022/09/20 05:42:51;;;;;;;;;;;9.80;99.90;;;;;;5114567;28;19935;-74
2022/09/20 05:45:38;;;;;;;;;;;9.70;99.90;;;;;;5106325;28;19920;-74
2022/09/20 05:48:07;;;;;;;;;;;9.60;99.90;;;;;;5111167;28;20302;-74
2022/09/20 05:50:51;;;;;;;;;;;9.60;99.90;;;;;;5110726;28;19922;-73
2022/09/20 05:53:16;;;;;;;;;;;9.60;99.90;;;;;;5097477;28;19919;-74
2022/09/20 05:56:08;;;;;;;;;;;9.60;99.90;;;;;;5100085;28;19924;-74
2022/09/20 05:58:42;;;;;;;;;;;9.70;99.90;;;;;;5094125;28;20015;-74
2022/09/20 06:01:15;;;;;;;;;;;9.80;99.90;;;;;;5102942;28;19908;-74
2022/09/20 06:03:54;;;;;;;;;;;9.90;99.90;;;;;;5098614;27;19920;-74
2022/09/20 06:06:27;;;;;;;;;;;9.90;99.90;;;;;;5106110;27;19919;-74
2022/09/20 06:08:58;;;;;;;;;;;10.00;99.90;;;;;;5093203;28;20225;-74
2022/09/20 06:11:36;;;;;;;;;;;10.10;99.90;;;;;;5102114;28;19951;-74
2022/09/20 06:14:22;;;;;;;;;;;10.10;99.90;;;;;;5105344;28;19916;-73
2022/09/20 06:16:55;;;;;;;;;;;10.00;99.90;;;;;;5087828;28;19940;-74
2022/09/20 06:19:40;;;;;;;;;;;10.10;99.90;;;;;;5110672;28;20320;-74
2022/09/20 06:22:17;;;;;;;;;;;10.20;99.90;;;;;;5098216;28;19912;-74
2022/09/20 06:24:49;;;;;;;;;;;10.30;99.90;;;;;;5112661;28;19927;-74
2022/09/20 06:27:18;;;;;;;;;;;10.30;99.90;;;;;;5110220;28;19908;-74
2022/09/20 06:29:47;;;;;;;;;;;10.30;99.90;;;;;;5094822;28;19916;-74
2022/09/20 06:32:16;;;;;;;;;;;10.30;99.90;;;;;;5141388;27;19911;-73
2022/09/20 06:34:42;;;;;;;;;;;10.40;99.90;;;;;;5105696;27;19926;-74
2022/09/20 06:42:52;;;;;;;;;;;10.70;99.90;;;;;;5109599;27;19926;-74
2022/09/20 06:45:18;;;;;;;;;;;10.90;99.90;;;;;;5095927;28;19916;-75
2022/09/20 06:47:43;;;;;;;;;;;10.90;99.90;;;;;;5112564;27;19908;-74
2022/09/20 06:50:14;;;;;;;;;;;11.00;99.90;;;;;;5095477;28;19951;-74
2022/09/20 06:52:41;;;;;;;;;;;11.00;99.90;;;;;;5113433;27;19908;-74
2022/09/20 06:55:14;;;;;;;;;;;11.00;99.90;;;;;;5105520;27;19938;-75
2022/09/20 06:57:40;;;;;;;;;;;11.10;99.90;;;;;;5094622;28;19912;-74
2022/09/20 07:00:09;;;;;;;;;;;11.20;99.90;;;;;;5101504;27;19912;-74
2022/09/20 07:02:35;;;;;;;;;;;11.20;99.90;;;;;;5099584;28;19920;-74
2022/09/20 07:05:00;;;;;;;;;;;11.30;99.90;;;;;;5108887;28;19916;-75
2022/09/20 07:07:26;;;;;;;;;;;11.30;99.90;;;;;;5102757;28;19923;-74
2022/09/20 07:09:51;;;;;;;;;;;11.40;99.90;;;;;;5133502;27;19916;-74
2022/09/20 07:12:17;;;;;;;;;;;11.40;99.90;;;;;;5101541;28;20025;-74
2022/09/20 07:14:43;;;;;;;;;;;11.30;99.90;;;;;;5096926;28;19908;-74
2022/09/20 07:17:08;;;;;;;;;;;11.30;99.90;;;;;;5092902;28;20215;-75
2022/09/20 07:19:35;;;;;;;;;;;11.30;99.90;;;;;;5102128;28;20218;-74
2022/09/20 07:22:01;;;;;;;;;;;11.40;99.90;;;;;;5099898;28;20456;-74
2022/09/20 07:24:28;;;;;;;;;;;11.40;99.90;;;;;;5105807;28;20003;-75
2022/09/20 07:26:55;;;;;;;;;;;11.40;99.90;;;;;;5113038;28;20230;-75
2022/09/20 07:29:21;;;;;;;;;;;11.40;99.90;;;;;;5094018;28;20001;-74
2022/09/20 07:31:48;;;;;;;;;;;11.40;99.90;;;;;;5099984;28;19919;-74
2022/09/20 07:34:15;;;;;;;;;;;11.40;99.90;;;;;;5101027;28;20277;-74
2022/09/20 07:36:41;;;;;;;;;;;11.40;99.90;;;;;;5138154;27;19955;-75
2022/09/20 07:39:07;;;;;;;;;;;11.50;99.90;;;;;;5096654;28;20002;-76
2022/09/20 07:41:32;;;;;;;;;;;11.70;99.90;;;;;;5108536;28;19918;-77
2022/09/20 07:44:19;;;;;;;;;;;12.00;99.90;;;;;;5114633;28;19923;-76
2022/09/20 07:46:44;;;;;;;;;;;12.30;99.90;;;;;;5110811;28;19912;-76
2022/09/20 07:49:10;;;;;;;;;;;12.70;99.90;;;;;;5102424;28;19912;-75
2022/09/20 07:51:36;;;;;;;;;;;13.00;99.90;;;;;;5092557;28;20722;-75
2022/09/20 07:54:01;;;;;;;;;;;13.20;99.90;;;;;;5096233;28;20211;-77
2022/09/20 07:56:27;;;;;;;;;;;13.30;99.90;;;;;;5121504;28;19932;-80
2022/09/20 07:58:52;;;;;;;;;;;13.30;99.90;;;;;;5108496;28;19966;-76
2022/09/20 08:01:19;;;;;;;;;;;13.20;99.90;;;;;;5106625;28;19961;-77
2022/09/20 08:03:45;;;;;;;;;;;13.10;99.90;;;;;;5130766;27;19916;-75
2022/09/20 08:06:15;;;;;;;;;;;13.10;99.90;;;;;;5097968;28;20027;-76
2022/09/20 08:08:41;;;;;;;;;;;13.00;99.90;;;;;;5111512;28;19915;-76
2022/09/20 08:11:06;;;;;;;;;;;13.10;99.90;;;;;;5095513;28;19916;-77
2022/09/20 08:13:35;;;;;;;;;;;13.10;99.90;;;;;;5098335;28;19962;-76
2022/09/20 08:16:02;;;;;;;;;;;13.10;99.90;;;;;;5101108;28;19947;-76
2022/09/20 08:18:28;;;;;;;;;;;13.10;99.90;;;;;;5105200;28;20260;-76
2022/09/20 08:20:54;;;;;;;;;;;13.30;99.90;;;;;;5110393;28;19915;-77
2022/09/20 08:23:19;;;;;;;;;;;13.40;99.90;;;;;;5110966;27;19920;-77
2022/09/20 08:25:47;;;;;;;;;;;13.40;99.90;;;;;;5112100;28;19912;-76
2022/09/20 08:28:14;;;;;;;;;;;13.50;99.90;;;;;;5100219;28;20130;-75
2022/09/20 08:30:40;;;;;;;;;;;13.50;99.90;;;;;;5102466;28;19911;-75
2022/09/20 08:33:06;;;;;;;;;;;13.60;99.90;;;;;;5113343;28;19947;-75
2022/09/20 08:35:34;;;;;;;;;;;13.60;99.90;;;;;;5115370;27;19959;-75
2022/09/20 08:38:00;;;;;;;;;;;13.60;99.90;;;;;;5106492;28;19918;-75
2022/09/20 08:40:28;;;;;;;;;;;13.60;99.90;;;;;;5102167;28;19911;-75
2022/09/20 08:42:54;;;;;;;;;;;13.60;99.90;;;;;;5096069;28;19916;-75
2022/09/20 08:45:21;;;;;;;;;;;13.60;99.90;;;;;;5110932;28;19912;-77
2022/09/20 08:47:48;;;;;;;;;;;13.60;99.90;;;;;;5116167;27;19911;-75
2022/09/20 08:50:14;;;;;;;;;;;13.60;99.90;;;;;;5107878;28;19908;-75
2022/09/20 08:52:43;;;;;;;;;;;13.60;99.90;;;;;;5106604;28;20311;-75
2022/09/20 08:55:16;;;;;;;;;;;13.60;99.90;;;;;;5106158;28;19928;-73
2022/09/20 08:57:42;;;;;;;;;;;13.50;99.90;;;;;;5101150;28;19992;-74
2022/09/20 09:00:43;;;;;;;;;;;13.40;99.90;;;;;;5094245;28;20359;-73
2022/09/20 09:03:13;;;;;;;;;;;13.20;99.90;;;;;;5046534;28;19952;-74
2022/09/20 09:05:56;;;;;;;;;;;13.10;99.90;;;;;;5051359;28;19917;-72
2022/09/20 09:08:32;;;;;;;;;;;13.00;99.90;;;;;;5051793;28;20283;-74
2022/09/20 09:11:03;;;;;;;;;;;12.80;99.90;;;;;;5052262;28;20610;-73
2022/09/20 09:13:31;;;;;;;;;;;12.60;99.90;;;;;;5051823;28;19916;-73
2022/09/20 09:16:01;;;;;;;;;;;12.50;99.90;;;;;;5045889;28;19927;-73
2022/09/20 09:18:31;;;;;;;;;;;12.30;99.90;;;;;;5052384;28;19982;-73
2022/09/20 09:20:58;;;;;;;;;;;12.30;99.90;;;;;;5052740;28;20382;-72
2022/09/20 09:23:25;;;;;;;;;;;12.40;99.90;;;;;;5068056;28;19928;-76
2022/09/20 09:25:52;;;;;;;;;;;12.50;99.90;;;;;;5051820;28;20042;-72
2022/09/20 09:28:22;;;;;;;;;;;12.60;99.90;;;;;;5050277;28;19913;-72
2022/09/20 09:30:48;;;;;;;;;;;12.80;99.90;;;;;;5027252;28;20338;-72
2022/09/20 09:33:15;;;;;;;;;;;12.90;99.90;;;;;;5034177;28;20012;-73
2022/09/20 09:35:41;;;;;;;;;;;13.10;99.90;;;;;;5052955;28;19909;-72
2022/09/20 09:38:14;;;;;;;;;;;13.30;99.90;;;;;;5089568;28;19911;-73
2022/09/20 09:40:47;;;;;;;;;;;13.30;99.90;;;;;;5095382;28;19912;-73
2022/09/20 09:43:18;;;;;;;;;;;13.50;99.90;;;;;;5095284;28;20296;-73
2022/09/20 09:45:43;;;;;;;;;;;13.50;99.90;;;;;;5095611;28;19908;-73
2022/09/20 09:48:25;;;;;;;;;;;13.60;99.90;;;;;;5095609;28;19908;-73
2022/09/20 09:51:10;;;;;;;;;;;13.80;99.90;;;;;;5102994;28;19922;-72
2022/09/20 09:53:36;;;;;;;;;;;13.90;99.90;;;;;;5100323;28;19916;-73
2022/09/20 09:56:09;;;;;;;;;;;13.90;99.90;;;;;;5109112;28;20233;-72
2022/09/20 09:58:54;;;;;;;;;;;14.10;99.90;;;;;;5102551;28;19974;-73
2022/09/20 10:01:35;;;;;;;;;;;14.10;99.90;;;;;;5103101;28;19908;-73
2022/09/20 10:04:14;;;;;;;;;;;14.10;99.90;;;;;;5103513;28;20291;-72
2022/09/20 10:07:01;;;;;;;;;;;14.30;99.90;;;;;;5109029;28;19916;-73
2022/09/20 10:09:53;;;;;;;;;;;14.40;99.90;;;;;;5102535;28;19912;-73
2022/09/20 10:12:51;;;;;;;;;;;14.60;99.90;;;;;;5093870;28;19914;-72
2022/09/20 10:15:16;;;;;;;;;;;14.60;99.90;;;;;;5020728;28;20252;-72
2022/09/20 10:17:42;;;;;;;;;;;14.60;99.90;;;;;;5049004;28;19958;-72
2022/09/20 10:20:27;;;;;;;;;;;14.50;99.90;;;;;;5047561;28;20008;-73
2022/09/20 10:22:55;;;;;;;;;;;14.70;99.90;;;;;;5028949;28;19955;-72
2022/09/20 10:25:22;;;;;;;;;;;14.70;99.90;;;;;;5049583;28;19966;-74
2022/09/20 10:27:51;;;;;;;;;;;14.70;99.90;;;;;;5038795;28;19920;-73
2022/09/20 10:30:24;;;;;;;;;;;14.80;99.90;;;;;;5039272;28;19924;-73
2022/09/20 10:33:08;;;;;;;;;;;14.90;99.90;;;;;;5030497;28;20337;-72
2022/09/20 10:35:52;;;;;;;;;;;14.90;99.90;;;;;;5047402;28;19982;-72
2022/09/20 10:38:38;;;;;;;;;;;15.00;99.90;;;;;;5030157;28;19909;-72
2022/09/20 10:43:56;;;;;;;;;;;14.80;99.90;;;;;;5046807;28;20220;-72
2022/09/20 10:46:30;;;;;;;;;;;14.70;99.90;;;;;;5048684;28;19919;-72
2022/09/20 10:49:07;;;;;;;;;;;14.70;99.90;;;;;;5043226;28;19917;-72
2022/09/20 10:51:43;;;;;;;;;;;14.80;99.90;;;;;;5084176;28;20364;-72
2022/09/20 10:54:33;;;;;;;;;;;15.10;99.90;;;;;;5101972;28;20052;-73
2022/09/20 10:57:17;;;;;;;;;;;15.60;99.90;;;;;;5108364;28;19923;-72
2022/09/20 10:59:54;;;;;;;;;;;15.60;99.90;;;;;;5107284;28;19915;-72
2022/09/20 11:02:20;;;;;;;;;;;15.60;99.90;;;;;;5109686;28;20257;-72
2022/09/20 11:05:04;;;;;;;;;;;15.50;99.90;;;;;;5109724;27;19957;-72
2022/09/20 11:07:35;;;;;;;;;;;15.40;99.90;;;;;;5100081;28;19916;-72
2022/09/20 11:10:06;;;;;;;;;;;15.40;99.90;;;;;;5104859;28;19916;-72
2022/09/20 11:12:44;;;;;;;;;;;15.30;99.90;;;;;;5093918;28;20415;-73
2022/09/20 11:15:15;;;;;;;;;;;15.30;99.90;;;;;;5099360;28;20312;-72
2022/09/20 11:17:44;;;;;;;;;;;15.20;99.90;;;;;;5095829;28;19916;-72
2022/09/20 11:20:16;;;;;;;;;;;15.30;99.90;;;;;;5106060;28;19962;-72
2022/09/20 11:22:47;;;;;;;;;;;15.30;99.90;;;;;;5093630;28;20226;-72
2022/09/20 11:25:15;;;;;;;;;;;15.40;99.90;;;;;;5104591;28;19912;-73
2022/09/20 11:27:57;;;;;;;;;;;15.60;99.90;;;;;;5096416;28;20280;-72
2022/09/20 11:30:22;;;;;;;;;;;15.70;99.90;;;;;;5108322;28;19966;-72
2022/09/20 11:32:56;;;;;;;;;;;15.90;99.90;;;;;;5108821;28;19947;-72
2022/09/20 11:35:42;;;;;;;;;;;16.20;99.90;;;;;;5114248;27;20344;-73
2022/09/20 11:38:11;;;;;;;;;;;16.60;99.90;;;;;;5109000;28;19923;-72
2022/09/20 11:40:40;;;;;;;;;;;16.60;99.90;;;;;;5113053;27;19970;-71
2022/09/20 11:43:07;;;;;;;;;;;16.50;99.90;;;;;;5108253;28;19916;-73
2022/09/20 11:45:33;;;;;;;;;;;16.30;99.90;;;;;;5110910;28;19974;-71
2022/09/20 11:48:06;;;;;;;;;;;16.10;99.90;;;;;;5111277;28;20483;-71
2022/09/20 11:50:37;;;;;;;;;;;16.10;99.90;;;;;;5113672;28;19961;-72
2022/09/20 11:53:16;;;;;;;;;;;16.10;99.90;;;;;;5116219;28;20007;-72
2022/09/20 11:56:08;;;;;;;;;;;15.90;99.90;;;;;;5105853;28;19960;-71
2022/09/20 11:58:47;;;;;;;;;;;15.90;99.90;;;;;;5085408;27;19912;-71
2022/09/20 12:01:13;;;;;;;;;;;15.70;99.90;;;;;;5101997;28;19971;-71
2022/09/20 12:03:39;;;;;;;;;;;15.70;99.90;;;;;;5111941;28;20288;-72
2022/09/20 12:06:25;;;;;;;;;;;15.70;99.90;;;;;;5111656;28;20329;-72
2022/09/20 12:08:51;;;;;;;;;;;15.70;99.90;;;;;;5112732;27;19912;-71
2022/09/20 12:11:26;;;;;;;;;;;15.60;99.90;;;;;;5113264;28;19927;-71
2022/09/20 12:13:54;;;;;;;;;;;15.60;99.90;;;;;;5112202;28;20467;-71
2022/09/20 12:16:36;;;;;;;;;;;15.70;99.90;;;;;;5098501;28;19912;-71
2022/09/20 12:19:04;;;;;;;;;;;15.70;99.90;;;;;;5111086;28;19916;-73
2022/09/20 12:21:29;;;;;;;;;;;15.70;99.90;;;;;;5096618;28;20352;-73
2022/09/20 12:23:55;;;;;;;;;;;15.70;99.90;;;;;;5102942;28;19915;-71
2022/09/20 12:26:21;;;;;;;;;;;15.70;99.90;;;;;;5113509;28;19915;-71
2022/09/20 12:28:54;;;;;;;;;;;15.50;99.90;;;;;;5114342;28;20409;-70
2022/09/20 12:31:32;;;;;;;;;;;15.50;99.90;;;;;;5110494;28;19908;-71
2022/09/20 12:34:01;;;;;;;;;;;15.50;99.90;;;;;;5109440;28;19916;-74
2022/09/20 12:36:33;;;;;;;;;;;15.50;99.90;;;;;;5098038;28;19924;-73
2022/09/20 12:39:04;;;;;;;;;;;15.50;99.90;;;;;;5096961;28;20366;-72
2022/09/20 12:41:48;;;;;;;;;;;15.50;99.90;;;;;;5104368;28;19907;-73
2022/09/20 12:44:22;;;;;;;;;;;15.40;99.90;;;;;;5095496;28;20008;-72
2022/09/20 12:46:56;;;;;;;;;;;15.20;99.90;;;;;;5107424;28;19922;-72
2022/09/20 12:52:49;;;;;;;;;;;15.00;99.90;;;;;;5101052;28;19923;-73
2022/09/20 12:55:24;;;;;;;;;;;15.00;99.90;;;;;;5109063;27;20315;-74
2022/09/20 12:57:57;;;;;;;;;;;15.00;99.90;;;;;;5108244;28;19918;-74
2022/09/20 13:00:33;;;;;;;;;;;15.10;99.90;;;;;;5107801;28;19919;-73
2022/09/20 13:02:59;;;;;;;;;;;15.10;99.90;;;;;;5114803;28;20307;-74
2022/09/20 13:05:44;;;;;;;;;;;15.20;99.90;;;;;;5110045;28;20253;-72
2022/09/20 13:08:15;;;;;;;;;;;15.20;99.90;;;;;;5100811;28;19908;-72
2022/09/20 13:10:58;;;;;;;;;;;15.30;99.90;;;;;;5096364;28;20019;-72
2022/09/20 13:13:27;;;;;;;;;;;15.40;99.90;;;;;;5097198;28;20324;-71
2022/09/20 13:15:53;;;;;;;;;;;15.60;99.90;;;;;;5095054;28;20424;-72
2022/09/20 13:18:19;;;;;;;;;;;15.60;99.90;;;;;;5108291;28;19912;-72
2022/09/20 13:20:44;;;;;;;;;;;15.70;99.90;;;;;;5097767;28;19911;-72
2022/09/20 13:23:17;;;;;;;;;;;15.70;99.90;;;;;;5102617;28;19995;-71
2022/09/20 13:25:43;;;;;;;;;;;15.60;99.90;;;;;;5094273;28;19959;-72
2022/09/20 13:28:17;;;;;;;;;;;15.50;99.90;;;;;;5095675;28;19908;-72
2022/09/20 13:30:43;;;;;;;;;;;15.50;99.90;;;;;;5105521;28;19911;-72
2022/09/20 13:33:16;;;;;;;;;;;15.50;99.90;;;;;;5101704;28;20493;-72
2022/09/20 13:35:43;;;;;;;;;;;15.40;99.90;;;;;;5105212;28;19911;-72
2022/09/20 13:38:08;;;;;;;;;;;15.40;99.90;;;;;;5110972;28;19920;-73
2022/09/20 13:40:34;;;;;;;;;;;15.40;99.90;;;;;;5099137;28;19916;-72
2022/09/20 13:43:15;;;;;;;;;;;15.50;99.90;;;;;;5097353;27;19935;-72
2022/09/20 13:45:52;;;;;;;;;;;15.70;99.90;;;;;;5109382;27;19912;-71
2022/09/20 13:48:28;;;;;;;;;;;16.00;99.90;;;;;;5091611;28;19986;-72
2022/09/20 13:50:53;;;;;;;;;;;16.20;99.90;;;;;;5107035;28;19916;-73
2022/09/20 13:53:21;;;;;;;;;;;16.30;99.90;;;;;;5101511;28;20011;-72
2022/09/20 13:55:47;;;;;;;;;;;16.30;99.90;;;;;;5093966;28;19924;-72
2022/09/20 13:58:15;;;;;;;;;;;16.20;99.90;;;;;;5098579;28;20334;-72
2022/09/20 14:00:46;;;;;;;;;;;16.10;99.90;;;;;;5107934;28;20310;-74
2022/09/20 14:03:15;;;;;;;;;;;16.10;99.90;;;;;;5110318;28;19919;-72
2022/09/20 14:05:45;;;;;;;;;;;15.90;99.90;;;;;;5106786;28;19908;-71
2022/09/20 14:08:14;;;;;;;;;;;15.80;99.90;;;;;;5097127;28;20019;-71
2022/09/20 14:10:42;;;;;;;;;;;15.80;99.90;;;;;;5098968;28;19965;-73
2022/09/20 14:13:13;;;;;;;;;;;15.80;99.90;;;;;;5088402;27;19919;-74
2022/09/20 14:15:43;;;;;;;;;;;15.70;99.90;;;;;;5103004;28;20327;-73
2022/09/20 14:18:21;;;;;;;;;;;15.60;99.90;;;;;;5087545;27;19934;-73
2022/09/20 14:20:46;;;;;;;;;;;15.70;99.90;;;;;;5094025;28;19955;-75
2022/09/20 14:23:21;;;;;;;;;;;15.90;99.90;;;;;;5093563;28;20004;-76
2022/09/20 14:26:05;;;;;;;;;;;16.00;99.90;;;;;;5110101;28;19942;-72
2022/09/20 14:28:33;;;;;;;;;;;16.00;99.90;;;;;;5106604;28;19965;-73
2022/09/20 14:31:13;;;;;;;;;;;15.90;99.90;;;;;;5112091;28;19912;-72
2022/09/20 14:33:40;;;;;;;;;;;15.70;99.90;;;;;;5106156;28;20192;-74
2022/09/20 14:36:11;;;;;;;;;;;15.60;99.90;;;;;;5110740;28;19976;-73
2022/09/20 14:38:37;;;;;;;;;;;15.50;99.90;;;;;;5107596;28;19916;-74
2022/09/20 14:41:02;;;;;;;;;;;15.40;99.90;;;;;;5107003;28;20311;-73
2022/09/20 14:43:33;;;;;;;;;;;15.30;99.90;;;;;;5093157;28;19912;-73
2022/09/20 14:46:01;;;;;;;;;;;15.20;99.90;;;;;;5112174;28;19920;-72
2022/09/20 14:48:30;;;;;;;;;;;15.20;99.90;;;;;;5101077;28;19916;-72
2022/09/20 14:51:11;;;;;;;;;;;15.20;99.90;;;;;;5100111;28;20286;-74
2022/09/20 14:53:37;;;;;;;;;;;15.20;99.90;;;;;;5098330;28;19924;-73
2022/09/20 14:56:02;;;;;;;;;;;15.20;99.90;;;;;;5102839;28;20008;-72
2022/09/20 14:58:28;;;;;;;;;;;15.10;99.90;;;;;;5100745;28;20411;-73
2022/09/20 15:01:00;;;;;;;;;;;15.20;99.90;;;;;;5102126;28;19960;-74
2022/09/20 15:03:27;;;;;;;;;;;15.20;99.90;;;;;;5099271;28;19959;-73